WetterOnline ( https://www.wetteronline.de )

Wetter aktuell Hamburg

Aktuelles Wetter: Hamburg/Fuhlsbüttel (15m)

6-stündlich | Neueste Meldungen
Ortszeit Temperatur Wetter
Mo, 14.10. 2:00 16.8° C bewölkt
So, 13.10. 20:00 18.2° C leicht bewölkt
So, 13.10. 14:00 17.1° C wolkig
So, 13.10. 8:00 11.0° C bedeckt
So, 13.10. 2:00 10.9° C Sprühregen
Sa, 12.10. 20:00 11.5° C Sprühregen
Sa, 12.10. 14:00 12.6° C bedeckt
Sa, 12.10. 8:00 11.2° C Sprühregen
Ortszeit Temperatur Wetter
Mo, 14.10. 5:20 14° C leicht bewölkt
Mo, 14.10. 5:00 14.6° C leicht bewölkt
Mo, 14.10. 4:50 14.6° C -
Mo, 14.10. 4:40 14.8° C -
Mo, 14.10. 4:30 14.8° C -
Mo, 14.10. 4:20 14.8° C -
Mo, 14.10. 4:00 15.3° C leicht bewölkt
Mo, 14.10. 3:30 15.7° C -
Mo, 14.10. 3:00 16.4° C bewölkt
Mo, 14.10. 2:30 16.6° C -
Mo, 14.10. 2:00 16.8° C bewölkt
Ortszeit Relative Feuchte Sichtweite
Mo, 14.10. 2:00 86% 30 km
So, 13.10. 20:00 88% 20 km
So, 13.10. 14:00 90% 10 km
So, 13.10. 8:00 93% 10 km
So, 13.10. 2:00 97% 5.0 km
Sa, 12.10. 20:00 91% 6 km
Sa, 12.10. 14:00 89% 40 km
Sa, 12.10. 8:00 95% 4.2 km
Ortszeit Relative Feuchte Sichtweite
Mo, 14.10. 5:20 82% >10 km
Mo, 14.10. 5:00 78% 30 km
Mo, 14.10. 4:50 78% -
Mo, 14.10. 4:40 78% -
Mo, 14.10. 4:30 80% 35 km
Mo, 14.10. 4:20 80% -
Mo, 14.10. 4:00 78% 30 km
Mo, 14.10. 3:30 78% 40 km
Mo, 14.10. 3:00 81% 30 km
Mo, 14.10. 2:30 86% 30 km
Mo, 14.10. 2:00 86% 30 km
Ortszeit Niederschlagsmenge Niederschlagsart
Mo, 14.10. 2:00 4 l/m2 in 6 Std. Schauer
So, 13.10. 20:00 1 l/m2 in 12 Std. Schauer
So, 13.10. 14:00 0.5 l/m2 in 6 Std. Regen
So, 13.10. 8:00 2 l/m2 in 12 Std. Regen
So, 13.10. 2:00 1 l/m2 in 6 Std. Regen
Sa, 12.10. 20:00 1 l/m2 in 12 Std. Regen
Sa, 12.10. 14:00 1 l/m2 in 6 Std. Regen
Sa, 12.10. 8:00 1 l/m2 in 12 Std. Regen
Ortszeit Niederschlagsmenge Niederschlagsart
Mo, 14.10. 5:20 keine Meldung -
Mo, 14.10. 5:00 0.0 l/m2 in 1 Std. -
Mo, 14.10. 4:50 keine Meldung -
Mo, 14.10. 4:40 keine Meldung -
Mo, 14.10. 4:30 0.0 l/m2 in 1 Std. -
Mo, 14.10. 4:20 keine Meldung -
Mo, 14.10. 4:00 0.0 l/m2 in 1 Std. -
Mo, 14.10. 3:30 0.0 l/m2 in 1 Std. -
Mo, 14.10. 3:00 0.0 l/m2 in 1 Std. -
Mo, 14.10. 2:30 0.0 l/m2 in 1 Std. -
Mo, 14.10. 2:00 0.0 l/m2 in 1 Std. Schauer
Ortszeit Stärke Spitze Richtung
km/h Bft. km/h Grad Sektor
Mo, 14.10. 2:00 20 4 48 230° SW
So, 13.10. 20:00 14 3 25 170° S
So, 13.10. 14:00 14 3 22 170° S
So, 13.10. 8:00 7 2 13 90° O
So, 13.10. 2:00 7 2 18 180° S
Sa, 12.10. 20:00 11 2 30 220° SW
Sa, 12.10. 14:00 17 3 26 240° SW
Sa, 12.10. 8:00 13 3 56 260° W
Ortszeit Stärke Spitze Richtung
km/h Bft. km/h Grad Sektor
Mo, 14.10. 5:20 17 3 - 260° W
Mo, 14.10. 5:00 22 4 40 250° W
Mo, 14.10. 4:50 22 4 - 250° W
Mo, 14.10. 4:40 20 4 - 250° W
Mo, 14.10. 4:30 19 3 30 250° W
Mo, 14.10. 4:20 19 3 - 250° W
Mo, 14.10. 4:00 19 3 37 260° W
Mo, 14.10. 3:30 22 4 36 250° W
Mo, 14.10. 3:00 22 4 37 250° W
Mo, 14.10. 2:30 20 4 33 240° SW
Mo, 14.10. 2:00 20 4 31 230° SW
Ortszeit Untergrenze Bedeckung Gattung
total tief tief mittel hoch
Mo, 14.10. 2:00 570 m 7/8 6/8 Sc Ac -
So, 13.10. 20:00 3600 m 6/8 6/8 - Ac -
So, 13.10. 14:00 600 m 7/8 3/8 Cu Ac -
So, 13.10. 8:00 150 m 8/8 8/8 St - -
So, 13.10. 2:00 90 m 8/8 7/8 Sc - -
Sa, 12.10. 20:00 570 m 8/8 7/8 Sc - -
Sa, 12.10. 14:00 240 m 8/8 7/8 Sc - -
Sa, 12.10. 8:00 150 m 8/8 7/8 St - -
Ortszeit Bedeckungsgrad in Achtel und Wolkenuntergrenze
Mo, 14.10. 5:20 1-2(690m)
Mo, 14.10. 5:00 3(690m)
Mo, 14.10. 4:50 -
Mo, 14.10. 4:40 -
Mo, 14.10. 4:30 -
Mo, 14.10. 4:20 -
Mo, 14.10. 4:00 3(660m)
Mo, 14.10. 3:30 -
Mo, 14.10. 3:00 1(510m) 6(900m) 7(3000m)
Mo, 14.10. 2:30 -
Mo, 14.10. 2:00 6(570m) 7(3000m)
Ortszeit Luftdruck NN (hPa) Tendenz (hPa in 3 Std.)
Mo, 14.10. 2:00 1009 + 2,5
So, 13.10. 20:00 1006 - 1,1
So, 13.10. 14:00 1009 - 0,9
So, 13.10. 8:00 1010 - 0,6
So, 13.10. 2:00 1011 + 0,2
Sa, 12.10. 20:00 1011 + 1,1
Sa, 12.10. 14:00 1009 + 1,3
Sa, 12.10. 8:00 1006 + 1,4
Ortszeit Luftdruck NN (hPa) Tendenz (hPa in 3 Std.)
Mo, 14.10. 5:20 1011 keine Meldung
Mo, 14.10. 5:00 1011 + 2,7
Mo, 14.10. 4:50 1011 keine Meldung
Mo, 14.10. 4:40 1011 keine Meldung
Mo, 14.10. 4:30 1011 + 2,5
Mo, 14.10. 4:20 1011 keine Meldung
Mo, 14.10. 4:00 1010 + 2,5
Mo, 14.10. 3:30 1010 + 2,7
Mo, 14.10. 3:00 1010 + 2,3
Mo, 14.10. 2:30 1009 + 1,8
Mo, 14.10. 2:00 1009 + 2,5
Ortszeit Schneehöhe (cm)
Mo, 14.10. 2:00 0
So, 13.10. 20:00 0
So, 13.10. 14:00 0
So, 13.10. 8:00 0
So, 13.10. 2:00 0
Sa, 12.10. 20:00 0
Sa, 12.10. 14:00 0
Sa, 12.10. 8:00 0
Ortszeit Schneehöhe (cm)
Mo, 14.10. 5:20 -
Mo, 14.10. 5:00 -
Mo, 14.10. 4:50 -
Mo, 14.10. 4:40 -
Mo, 14.10. 4:30 -
Mo, 14.10. 4:20 -
Mo, 14.10. 4:00 -
Mo, 14.10. 3:30 -
Mo, 14.10. 3:00 -
Mo, 14.10. 2:30 -
Mo, 14.10. 2:00 0
Link zu dieser Seite / Seite empfehlen

Das Wetter in ...